createdAt,value
2023-02-08T00:01:31.605Z,102772.22
2023-02-08T00:03:57.980Z,102774.19
2023-02-08T00:06:24.282Z,102766.13
2023-02-08T00:08:50.549Z,102771.31
2023-02-08T00:11:16.936Z,102762.13
2023-02-08T00:13:43.301Z,102764.13
2023-02-08T00:16:10.379Z,102767.06
2023-02-08T00:18:37.339Z,102767.06
2023-02-08T00:21:12.353Z,102765.81
2023-02-08T00:23:39.012Z,102759.25
2023-02-08T00:26:05.791Z,102753.53
2023-02-08T00:28:32.280Z,102759.72
2023-02-08T00:30:58.819Z,102753.38
2023-02-08T00:33:25.240Z,102752.44
2023-02-08T00:35:57.842Z,102754.72
2023-02-08T00:38:24.090Z,102751.88
2023-02-08T00:40:50.373Z,102753.88
2023-02-08T00:43:16.672Z,102761.63
2023-02-08T00:45:42.973Z,102758.53
2023-02-08T00:48:09.253Z,102760.38
2023-02-08T00:50:35.710Z,102760.03
2023-02-08T00:53:02.028Z,102766.81
2023-02-08T00:55:28.321Z,102757.53
2023-02-08T00:57:54.702Z,102771.81
2023-02-08T01:00:21.161Z,102771.88
2023-02-08T01:02:47.656Z,102766.13
2023-02-08T01:05:13.942Z,102763.38
2023-02-08T01:07:40.505Z,102765.22
2023-02-08T01:10:09.233Z,102759.63
2023-02-08T01:12:35.574Z,102763.22
2023-02-08T01:15:01.867Z,102762.88
2023-02-08T01:17:28.196Z,102757.97
2023-02-08T01:19:54.466Z,102757.13
2023-02-08T01:22:20.741Z,102757.44
2023-02-08T01:24:47.027Z,102759.75
2023-02-08T01:27:13.282Z,102755.97
2023-02-08T01:29:39.572Z,102763.22
2023-02-08T01:32:05.956Z,102760.97
2023-02-08T01:34:32.295Z,102761.50
2023-02-08T01:36:58.594Z,102753.22
2023-02-08T01:39:24.886Z,102750.72
2023-02-08T01:41:51.232Z,102745.47
2023-02-08T01:44:17.613Z,102751.53
2023-02-08T01:46:46.322Z,102747.28
2023-02-08T01:49:24.721Z,102741.66
2023-02-08T01:52:03.136Z,102744.06
2023-02-08T01:54:38.037Z,102739.19
2023-02-08T01:57:04.828Z,102743.44
2023-02-08T01:59:41.023Z,102736.50
2023-02-08T02:02:12.578Z,102734.09
2023-02-08T02:04:39.280Z,102732.44
2023-02-08T02:07:06.255Z,102735.69
2023-02-08T02:09:39.830Z,102727.88
2023-02-08T02:12:08.415Z,102723.34
2023-02-08T02:14:35.899Z,102725.69
2023-02-08T02:17:02.569Z,102724.59
2023-02-08T02:19:40.442Z,102725.75
2023-02-08T02:22:26.976Z,102722.84
2023-02-08T02:25:18.517Z,102723.66
2023-02-08T02:27:57.281Z,102727.00
2023-02-08T02:30:55.864Z,102725.56
2023-02-08T02:33:25.298Z,102731.09
2023-02-08T02:36:18.902Z,102719.09
2023-02-08T02:38:53.937Z,102727.41
2023-02-08T02:41:56.661Z,102719.88
2023-02-08T02:44:47.617Z,102730.81
2023-02-08T02:47:38.999Z,102726.03
2023-02-08T02:50:30.034Z,102724.03
2023-02-08T02:53:07.393Z,102720.34
2023-02-08T02:55:40.323Z,102717.56
2023-02-08T02:58:11.021Z,102720.88
2023-02-08T03:00:37.665Z,102715.69
2023-02-08T03:03:04.137Z,102718.69
2023-02-08T03:05:30.560Z,102718.69
2023-02-08T03:08:11.583Z,102710.47
2023-02-08T03:10:55.639Z,102712.88
2023-02-08T03:13:27.914Z,102710.66
2023-02-08T03:16:18.223Z,102706.81
2023-02-08T03:19:09.636Z,102709.03
2023-02-08T03:21:58.380Z,102713.53
2023-02-08T03:24:45.499Z,102711.13
2023-02-08T03:27:28.790Z,102712.97
2023-02-08T03:30:01.189Z,102711.31
2023-02-08T03:32:40.746Z,102719.97
2023-02-08T03:35:31.572Z,102731.97
2023-02-08T03:38:03.568Z,102726.44
2023-02-08T03:40:36.978Z,102726.59
2023-02-08T03:43:11.378Z,102728.28
2023-02-08T03:45:44.516Z,102728.47
2023-02-08T03:48:14.266Z,102731.97
2023-02-08T03:50:43.826Z,102719.06
2023-02-08T03:53:10.992Z,102724.22
2023-02-08T03:55:38.908Z,102726.81
2023-02-08T03:58:12.818Z,102726.97
2023-02-08T04:00:43.461Z,102719.81
2023-02-08T04:03:19.289Z,102727.03
2023-02-08T04:05:46.579Z,102717.09
2023-02-08T04:08:12.866Z,102722.63
2023-02-08T04:10:39.743Z,102717.28
2023-02-08T04:13:06.205Z,102715.78
2023-02-08T04:15:32.722Z,102716.75
2023-02-08T04:17:59.074Z,102719.75
2023-02-08T04:20:25.425Z,102720.72
2023-02-08T04:22:51.702Z,102723.69
2023-02-08T04:25:18.681Z,102720.59
2023-02-08T04:27:45.076Z,102732.22
2023-02-08T04:30:12.262Z,102725.00
2023-02-08T04:32:38.697Z,102726.50
2023-02-08T04:35:05.542Z,102729.66
2023-02-08T04:37:32.757Z,102717.31
2023-02-08T04:39:59.069Z,102715.16
2023-02-08T04:42:25.432Z,102712.97
2023-02-08T04:44:51.976Z,102719.41
2023-02-08T04:47:18.377Z,102707.97
2023-02-08T04:49:44.761Z,102716.13
2023-02-08T04:52:11.095Z,102716.91
2023-02-08T04:54:39.943Z,102708.44
2023-02-08T04:57:07.103Z,102707.34
2023-02-08T04:59:33.398Z,102700.34
2023-02-08T05:02:00.327Z,102688.34
2023-02-08T05:04:27.248Z,102695.34
2023-02-08T05:06:53.510Z,102690.00
2023-02-08T05:09:19.824Z,102687.44
2023-02-08T05:11:46.133Z,102695.72
2023-02-08T05:14:12.407Z,102694.09
2023-02-08T05:16:38.690Z,102692.09
2023-02-08T05:19:05.119Z,102698.56
2023-02-08T05:21:31.434Z,102701.69
2023-02-08T05:23:57.781Z,102696.72
2023-02-08T05:26:24.132Z,102696.50
2023-02-08T05:28:50.521Z,102695.06
2023-02-08T05:31:23.037Z,102693.22
2023-02-08T05:33:50.484Z,102689.53
2023-02-08T05:36:17.549Z,102694.53
2023-02-08T05:38:43.894Z,102696.94
2023-02-08T05:41:10.217Z,102702.28
2023-02-08T05:43:37.077Z,102701.34
2023-02-08T05:46:03.637Z,102699.34
2023-02-08T05:48:31.173Z,102703.94
2023-02-08T05:50:57.520Z,102705.94
2023-02-08T05:53:23.833Z,102704.41
2023-02-08T05:55:50.196Z,102702.94
2023-02-08T05:58:17.288Z,102700.00
2023-02-08T06:00:44.137Z,102710.88
2023-02-08T06:03:11.212Z,102713.34
2023-02-08T06:05:39.275Z,102709.66
2023-02-08T06:08:05.904Z,102715.56
2023-02-08T06:10:32.312Z,102716.88
2023-02-08T06:12:58.677Z,102714.28
2023-02-08T06:15:24.993Z,102718.41
2023-02-08T06:17:51.341Z,102718.72
2023-02-08T06:20:17.730Z,102726.28
2023-02-08T06:22:44.092Z,102709.22
2023-02-08T06:25:10.424Z,102729.47
2023-02-08T06:27:36.758Z,102731.28
2023-02-08T06:30:03.479Z,102732.53
2023-02-08T06:32:29.871Z,102715.63
2023-02-08T06:34:57.323Z,102731.28
2023-02-08T06:37:23.628Z,102727.53
2023-02-08T06:39:49.991Z,102740.00
2023-02-08T06:42:16.286Z,102742.78
2023-02-08T06:44:54.213Z,102740.53
2023-02-08T06:47:25.581Z,102731.81
2023-02-08T06:49:52.513Z,102741.06
2023-02-08T06:52:19.651Z,102748.09
2023-02-08T06:54:46.002Z,102745.91
2023-02-08T06:57:15.363Z,102744.81
2023-02-08T06:59:42.204Z,102738.91
2023-02-08T07:02:17.333Z,102745.19
2023-02-08T07:04:45.264Z,102752.88
2023-02-08T07:07:13.046Z,102747.53
2023-02-08T07:09:39.599Z,102741.06
2023-02-08T07:12:06.330Z,102747.72
2023-02-08T07:14:38.303Z,102741.81
2023-02-08T07:17:04.623Z,102737.16
2023-02-08T07:19:31.262Z,102735.69
2023-02-08T07:22:02.989Z,102744.84
2023-02-08T07:24:29.296Z,102743.72
2023-02-08T07:26:55.630Z,102739.81
2023-02-08T07:29:21.940Z,102733.44
2023-02-08T07:31:48.267Z,102726.34
2023-02-08T07:34:16.868Z,102738.78
2023-02-08T07:36:43.138Z,102738.88
2023-02-08T07:39:09.394Z,102735.13
2023-02-08T07:41:35.681Z,102733.22
2023-02-08T07:44:01.964Z,102728.53
2023-02-08T07:46:28.370Z,102723.91
2023-02-08T07:48:54.668Z,102716.72
2023-02-08T07:51:21.009Z,102707.19
2023-02-08T07:53:47.414Z,102707.06
2023-02-08T07:56:13.769Z,102706.63
2023-02-08T07:58:40.708Z,102707.78
2023-02-08T08:01:20.967Z,102708.06
2023-02-08T08:03:48.632Z,102711.16
2023-02-08T08:06:15.063Z,102715.75
2023-02-08T08:08:41.351Z,102714.09
2023-02-08T08:11:07.596Z,102715.00
2023-02-08T08:13:33.864Z,102712.53
2023-02-08T08:16:00.217Z,102707.47
2023-02-08T08:18:26.508Z,102708.00
2023-02-08T08:20:52.773Z,102714.06
2023-02-08T08:23:19.836Z,102712.31
2023-02-08T08:25:46.205Z,102713.53
2023-02-08T08:28:12.539Z,102709.91
2023-02-08T08:30:43.312Z,102711.72
2023-02-08T08:33:10.089Z,102713.84
2023-02-08T08:35:36.414Z,102714.97
2023-02-08T08:38:02.711Z,102715.53
2023-02-08T08:40:29.066Z,102714.72
2023-02-08T08:42:56.902Z,102710.69
2023-02-08T08:45:23.795Z,102711.63
2023-02-08T08:47:50.089Z,102704.03
2023-02-08T08:50:16.381Z,102707.63
2023-02-08T08:52:42.994Z,102702.56
2023-02-08T08:55:09.325Z,102702.63
2023-02-08T08:57:35.692Z,102692.59
2023-02-08T09:00:02.424Z,102693.25
2023-02-08T09:02:28.744Z,102706.38
2023-02-08T09:04:55.058Z,102709.94
2023-02-08T09:07:21.402Z,102711.00
2023-02-08T09:09:48.013Z,102700.59
2023-02-08T09:12:15.791Z,102707.13
2023-02-08T09:14:44.669Z,102707.97
2023-02-08T09:17:11.940Z,102704.22
2023-02-08T09:19:38.465Z,102696.94
2023-02-08T09:22:08.134Z,102701.53
2023-02-08T09:24:35.242Z,102698.44
2023-02-08T09:27:01.615Z,102704.19
2023-02-08T09:29:29.962Z,102695.38
2023-02-08T09:31:56.439Z,102696.28
2023-02-08T09:34:23.070Z,102701.91
2023-02-08T09:36:49.399Z,102689.13
2023-02-08T09:39:19.298Z,102689.00
2023-02-08T09:42:13.173Z,102679.72
2023-02-08T09:45:09.564Z,102687.81
2023-02-08T09:47:57.614Z,102687.47
2023-02-08T09:50:35.302Z,102686.16
2023-02-08T09:53:17.506Z,102682.50
2023-02-08T09:55:47.985Z,102682.88
2023-02-08T09:58:23.634Z,102685.75
2023-02-08T10:00:51.938Z,102684.31
2023-02-08T10:03:33.958Z,102676.59
2023-02-08T10:06:01.536Z,102678.84
2023-02-08T10:08:35.227Z,102679.22
2023-02-08T10:11:46.697Z,102684.31
2023-02-08T10:14:48.296Z,102689.53
2023-02-08T10:17:52.581Z,102687.44
2023-02-08T10:20:38.631Z,102679.19
2023-02-08T10:23:23.644Z,102694.59
2023-02-08T10:26:11.971Z,102698.16
2023-02-08T10:28:57.669Z,102696.69
2023-02-08T10:31:44.754Z,102693.94
2023-02-08T10:34:22.961Z,102688.72
2023-02-08T10:36:49.244Z,102687.13
2023-02-08T10:39:26.959Z,102686.97
2023-02-08T10:41:53.597Z,102684.91
2023-02-08T10:44:27.896Z,102695.25
2023-02-08T10:47:14.479Z,102683.59
2023-02-08T10:49:50.544Z,102684.78
2023-02-08T10:52:16.800Z,102680.16
2023-02-08T10:54:43.202Z,102668.13
2023-02-08T10:57:24.344Z,102665.50
2023-02-08T10:59:58.535Z,102666.13
2023-02-08T11:02:28.800Z,102663.06
2023-02-08T11:05:03.412Z,102659.13
2023-02-08T11:07:31.367Z,102656.22
2023-02-08T11:10:12.902Z,102665.00
2023-02-08T11:12:41.127Z,102662.66
2023-02-08T11:15:26.006Z,102653.22
2023-02-08T11:17:54.953Z,102650.06
2023-02-08T11:20:39.756Z,102641.06
2023-02-08T11:23:28.748Z,102650.19
2023-02-08T11:26:15.347Z,102642.59
2023-02-08T11:28:42.217Z,102636.25
2023-02-08T11:31:18.590Z,102642.16
2023-02-08T11:34:04.746Z,102634.13
2023-02-08T11:36:33.779Z,102629.13
2023-02-08T11:39:16.685Z,102624.44
2023-02-08T11:41:45.687Z,102617.19
2023-02-08T11:44:20.839Z,102620.00
2023-02-08T11:46:48.586Z,102611.47
2023-02-08T11:49:23.386Z,102616.34
2023-02-08T11:51:49.906Z,102618.66
2023-02-08T11:54:38.766Z,102610.94
2023-02-08T11:57:14.613Z,102612.09
2023-02-08T11:59:41.489Z,102602.31
2023-02-08T12:02:26.423Z,102607.84
2023-02-08T12:04:52.902Z,102600.19
2023-02-08T12:07:37.887Z,102598.84
2023-02-08T12:10:25.566Z,102590.53
2023-02-08T12:13:01.085Z,102587.22
2023-02-08T12:15:57.968Z,102590.63
2023-02-08T12:18:39.161Z,102582.22
2023-02-08T12:21:12.623Z,102588.69
2023-02-08T12:23:47.405Z,102578.59
2023-02-08T12:26:41.967Z,102578.34
2023-02-08T12:29:46.892Z,102578.00
2023-02-08T12:32:38.924Z,102574.69
2023-02-08T12:36:03.067Z,102579.25
2023-02-08T12:39:26.617Z,102574.56
2023-02-08T12:41:58.757Z,102567.63
2023-02-08T12:44:34.065Z,102557.59
2023-02-08T12:47:10.672Z,102559.41
2023-02-08T12:50:01.565Z,102555.78
2023-02-08T12:52:37.583Z,102545.16
2023-02-08T12:55:26.337Z,102543.22
2023-02-08T12:57:57.495Z,102536.53
2023-02-08T13:00:28.948Z,102536.97
2023-02-08T13:03:06.926Z,102528.44
2023-02-08T13:05:42.928Z,102532.16
2023-02-08T13:08:30.364Z,102539.44
2023-02-08T13:11:14.138Z,102526.34
2023-02-08T13:13:58.587Z,102516.06
2023-02-08T13:16:31.062Z,102518.00
2023-02-08T13:19:05.710Z,102511.16
2023-02-08T13:21:41.696Z,102504.72
2023-02-08T13:24:18.849Z,102498.78
2023-02-08T13:26:45.601Z,102488.41
2023-02-08T13:29:18.534Z,102485.19
2023-02-08T13:31:49.613Z,102478.91
2023-02-08T13:34:29.533Z,102478.06
2023-02-08T13:37:00.209Z,102472.69
2023-02-08T13:39:34.413Z,102472.22
2023-02-08T13:42:02.585Z,102465.25
2023-02-08T13:44:35.978Z,102464.91
2023-02-08T13:47:03.499Z,102473.59
2023-02-08T13:49:49.275Z,102455.53
2023-02-08T13:52:47.048Z,102456.44
2023-02-08T13:55:30.466Z,102448.84
2023-02-08T13:57:59.138Z,102461.25
2023-02-08T14:00:25.544Z,102454.31
2023-02-08T14:03:22.550Z,102456.94
2023-02-08T14:05:57.749Z,102456.25
2023-02-08T14:08:39.334Z,102457.72
2023-02-08T14:11:15.043Z,102444.13
2023-02-08T14:13:47.264Z,102441.72
2023-02-08T14:16:32.655Z,102452.34
2023-02-08T14:19:04.930Z,102446.06
2023-02-08T14:21:42.955Z,102439.59
2023-02-08T14:24:23.423Z,102443.03
2023-02-08T14:26:51.435Z,102443.41
2023-02-08T14:29:27.683Z,102429.97
2023-02-08T14:31:54.504Z,102432.69
2023-02-08T14:34:47.253Z,102426.59
2023-02-08T14:37:21.420Z,102432.84
2023-02-08T14:39:50.408Z,102421.94
2023-02-08T14:42:55.876Z,102429.00
2023-02-08T14:45:34.168Z,102418.78
2023-02-08T14:48:16.135Z,102412.31
2023-02-08T14:50:51.119Z,102404.31
2023-02-08T14:53:49.559Z,102405.63
2023-02-08T14:56:18.711Z,102414.59
2023-02-08T14:58:52.187Z,102402.09
2023-02-08T15:01:44.067Z,102389.34
2023-02-08T15:04:10.662Z,102390.03
2023-02-08T15:06:50.326Z,102385.72
2023-02-08T15:09:21.754Z,102388.66
2023-02-08T15:11:59.649Z,102382.97
2023-02-08T15:14:26.873Z,102383.53
2023-02-08T15:16:55.396Z,102376.75
2023-02-08T15:19:26.918Z,102376.53
2023-02-08T15:21:53.594Z,102380.53
2023-02-08T15:24:23.136Z,102376.09
2023-02-08T15:26:52.285Z,102372.13
2023-02-08T15:29:39.141Z,102363.94
2023-02-08T15:32:16.277Z,102362.25
2023-02-08T15:34:44.319Z,102359.94
2023-02-08T15:37:18.292Z,102360.31
2023-02-08T15:39:48.978Z,102353.94
2023-02-08T15:42:24.148Z,102355.56
2023-02-08T15:44:50.630Z,102352.59
2023-02-08T15:47:27.778Z,102347.03
2023-02-08T15:49:56.053Z,102355.38
2023-02-08T15:52:27.613Z,102355.72
2023-02-08T15:54:54.593Z,102356.84
2023-02-08T15:57:39.223Z,102357.69
2023-02-08T16:00:14.044Z,102359.63
2023-02-08T16:02:40.972Z,102360.66
2023-02-08T16:05:25.601Z,102362.78
2023-02-08T16:07:52.249Z,102355.63
2023-02-08T16:10:29.292Z,102352.00
2023-02-08T16:12:59.398Z,102358.25
2023-02-08T16:15:39.426Z,102352.69
2023-02-08T16:18:06.576Z,102356.13
2023-02-08T16:20:35.302Z,102345.91
2023-02-08T16:23:21.367Z,102352.47
2023-02-08T16:25:50.593Z,102352.84
2023-02-08T16:28:33.473Z,102348.63
2023-02-08T16:31:02.799Z,102352.81
2023-02-08T16:33:31.450Z,102351.31
2023-02-08T16:36:01.884Z,102340.81
2023-02-08T16:38:30.977Z,102344.34
2023-02-08T16:41:11.776Z,102341.59
2023-02-08T16:43:43.659Z,102333.34
2023-02-08T16:46:21.256Z,102333.22
2023-02-08T16:48:50.578Z,102336.75
2023-02-08T16:51:21.906Z,102334.03
2023-02-08T16:53:50.738Z,102343.88
2023-02-08T16:56:17.318Z,102340.41
2023-02-08T16:58:43.624Z,102349.44
2023-02-08T17:01:12.771Z,102359.09
2023-02-08T17:03:39.493Z,102351.41
2023-02-08T17:06:06.405Z,102351.69
2023-02-08T17:08:35.649Z,102349.09
2023-02-08T17:11:01.990Z,102349.78
2023-02-08T17:13:28.268Z,102351.50
2023-02-08T17:15:54.796Z,102355.66
2023-02-08T17:18:21.378Z,102339.38
2023-02-08T17:20:47.753Z,102345.50
2023-02-08T17:23:15.781Z,102346.53
2023-02-08T17:25:42.951Z,102352.91
2023-02-08T17:28:15.934Z,102351.47
2023-02-08T17:30:43.295Z,102356.84
2023-02-08T17:33:17.770Z,102360.75
2023-02-08T17:35:46.549Z,102357.22
2023-02-08T17:38:15.390Z,102359.44
2023-02-08T17:40:42.564Z,102354.47
2023-02-08T17:43:11.334Z,102367.94
2023-02-08T17:45:39.440Z,102365.22
2023-02-08T17:48:06.743Z,102368.81
2023-02-08T17:50:33.232Z,102371.03
2023-02-08T17:52:59.590Z,102369.13
2023-02-08T17:55:26.012Z,102371.69
2023-02-08T17:57:53.670Z,102373.63
2023-02-08T18:00:22.131Z,102375.56
2023-02-08T18:02:51.014Z,102371.25
2023-02-08T18:05:22.513Z,102368.56
2023-02-08T18:07:50.093Z,102362.00
2023-02-08T18:10:16.475Z,102366.06
2023-02-08T18:12:43.093Z,102372.28
2023-02-08T18:15:12.215Z,102372.22
2023-02-08T18:17:39.523Z,102362.03
2023-02-08T18:20:06.748Z,102363.94
2023-02-08T18:22:33.270Z,102370.00
2023-02-08T18:24:59.602Z,102367.38
2023-02-08T18:27:27.211Z,102363.13
2023-02-08T18:29:54.309Z,102353.50
2023-02-08T18:32:21.961Z,102366.91
2023-02-08T18:34:49.489Z,102360.53
2023-02-08T18:37:16.814Z,102365.44
2023-02-08T18:39:43.204Z,102371.59
2023-02-08T18:42:10.280Z,102360.59
2023-02-08T18:44:38.471Z,102365.16
2023-02-08T18:47:06.003Z,102368.66
2023-02-08T18:49:32.522Z,102368.53
2023-02-08T18:51:59.164Z,102367.66
2023-02-08T18:54:25.463Z,102368.59
2023-02-08T18:56:54.581Z,102367.59
2023-02-08T18:59:21.275Z,102367.06
2023-02-08T19:01:48.004Z,102368.66
2023-02-08T19:04:14.316Z,102370.44
2023-02-08T19:06:40.688Z,102368.19
2023-02-08T19:09:07.689Z,102376.44
2023-02-08T19:11:37.729Z,102379.47
2023-02-08T19:14:10.434Z,102375.97
2023-02-08T19:16:37.471Z,102372.66
2023-02-08T19:19:06.331Z,102377.28
2023-02-08T19:21:33.900Z,102373.00
2023-02-08T19:24:01.372Z,102371.78
2023-02-08T19:26:42.369Z,102367.84
2023-02-08T19:29:13.411Z,102374.19
2023-02-08T19:31:40.489Z,102366.31
2023-02-08T19:34:07.548Z,102374.88
2023-02-08T19:36:41.527Z,102378.72
2023-02-08T19:39:08.212Z,102372.47
2023-02-08T19:41:37.685Z,102369.41
2023-02-08T19:44:05.929Z,102362.72
2023-02-08T19:46:34.413Z,102366.22
2023-02-08T19:49:01.652Z,102359.22
2023-02-08T19:51:30.237Z,102365.56
2023-02-08T19:53:58.257Z,102365.28
2023-02-08T19:56:24.589Z,102367.44
2023-02-08T19:58:50.880Z,102379.22
2023-02-08T20:01:22.176Z,102361.09
2023-02-08T20:03:49.977Z,102368.25
2023-02-08T20:06:19.037Z,102365.19
2023-02-08T20:08:46.102Z,102363.06
2023-02-08T20:11:32.160Z,102362.16
2023-02-08T20:14:00.041Z,102353.31
2023-02-08T20:16:31.198Z,102353.81
2023-02-08T20:18:58.535Z,102354.13
2023-02-08T20:21:24.885Z,102353.78
2023-02-08T20:23:51.316Z,102353.47
2023-02-08T20:26:21.112Z,102355.00
2023-02-08T20:28:51.326Z,102358.84
2023-02-08T20:31:20.903Z,102358.84
2023-02-08T20:33:47.822Z,102357.94
2023-02-08T20:36:18.262Z,102356.88
2023-02-08T20:38:44.633Z,102353.81
2023-02-08T20:41:14.423Z,102353.81
2023-02-08T20:43:42.366Z,102352.13
2023-02-08T20:46:35.929Z,102361.13
2023-02-08T20:49:04.186Z,102351.38
2023-02-08T20:51:31.211Z,102346.34
2023-02-08T20:53:59.125Z,102350.63
2023-02-08T20:56:28.958Z,102355.78
2023-02-08T20:58:55.347Z,102348.47
2023-02-08T21:01:24.851Z,102344.22
2023-02-08T21:03:55.806Z,102340.53
2023-02-08T21:06:31.058Z,102336.41
2023-02-08T21:08:59.666Z,102343.53
2023-02-08T21:11:28.413Z,102349.66
2023-02-08T21:13:55.750Z,102342.34
2023-02-08T21:16:22.562Z,102342.94
2023-02-08T21:18:49.228Z,102341.94
2023-02-08T21:21:16.200Z,102329.91
2023-02-08T21:23:44.147Z,102326.75
2023-02-08T21:26:13.389Z,102325.00
2023-02-08T21:28:39.968Z,102328.13
2023-02-08T21:31:10.362Z,102332.84
2023-02-08T21:33:36.694Z,102334.47
2023-02-08T21:36:10.264Z,102330.47
2023-02-08T21:38:36.630Z,102324.69
2023-02-08T21:41:24.416Z,102317.59
2023-02-08T21:43:53.973Z,102318.75
2023-02-08T21:46:21.130Z,102316.09
2023-02-08T21:49:06.771Z,102313.69
2023-02-08T21:51:51.477Z,102314.38
2023-02-08T21:54:29.599Z,102306.97
2023-02-08T21:56:58.596Z,102306.59
2023-02-08T21:59:24.886Z,102310.63
2023-02-08T22:01:51.265Z,102305.19
2023-02-08T22:04:17.680Z,102303.66
2023-02-08T22:06:44.030Z,102305.31
2023-02-08T22:09:10.342Z,102294.53
2023-02-08T22:11:36.634Z,102290.25
2023-02-08T22:14:03.008Z,102303.03
2023-02-08T22:16:29.371Z,102284.44
2023-02-08T22:18:55.677Z,102287.94
2023-02-08T22:21:21.956Z,102292.22
2023-02-08T22:23:48.298Z,102289.00
2023-02-08T22:26:14.586Z,102291.31
2023-02-08T22:28:40.879Z,102293.84
2023-02-08T22:31:07.280Z,102295.38
2023-02-08T22:33:33.791Z,102284.63
2023-02-08T22:36:00.168Z,102282.31
2023-02-08T22:38:26.516Z,102298.41
2023-02-08T22:40:52.808Z,102301.81
2023-02-08T22:43:19.099Z,102289.38
2023-02-08T22:45:45.558Z,102300.25
2023-02-08T22:48:11.860Z,102305.72
2023-02-08T22:50:38.450Z,102298.00
2023-02-08T22:53:04.742Z,102293.44
2023-02-08T22:55:31.128Z,102302.63
2023-02-08T22:57:57.463Z,102302.81
2023-02-08T23:00:23.876Z,102290.63
2023-02-08T23:02:50.240Z,102301.16
2023-02-08T23:05:16.562Z,102300.59
2023-02-08T23:07:42.958Z,102298.94
2023-02-08T23:10:10.602Z,102295.56
2023-02-08T23:12:36.894Z,102297.38
2023-02-08T23:15:03.309Z,102294.91
2023-02-08T23:17:29.573Z,102296.97
2023-02-08T23:19:55.930Z,102295.00
2023-02-08T23:22:22.248Z,102294.69
2023-02-08T23:24:48.586Z,102292.22
2023-02-08T23:27:14.976Z,102293.09
2023-02-08T23:29:41.220Z,102294.38
2023-02-08T23:32:07.687Z,102301.88
2023-02-08T23:34:34.938Z,102288.69
2023-02-08T23:37:01.234Z,102296.31
2023-02-08T23:39:27.610Z,102299.75
2023-02-08T23:41:55.955Z,102284.97
2023-02-08T23:44:23.362Z,102280.97
2023-02-08T23:46:49.641Z,102281.63
2023-02-08T23:49:15.930Z,102283.03
2023-02-08T23:51:42.271Z,102285.47
2023-02-08T23:54:08.702Z,102289.91
2023-02-08T23:56:35.180Z,102286.22
2023-02-08T23:59:01.475Z,102292.69
